KTOB

Dodge Center Airport

Dodge Center, Minnesota, USA
METAR KTOB 160215Z AUTO 16011KT 10SM CLR M01/M05 A3004 RMK AO2
Observed Flight Rules
Dec-16 @ 02:15 UTC (12 minutes ago) Visual Flight Rules
Wind Visibility Clouds
160° at 11 knots 10 miles
  • Clear skies
Temperatures Readings
Current -1°C / 30°F
Dewpoint -5°C / 23°F
Humidity 75%
Altimeter 30.04" Hg
Pressure 1017 hPa
Elevation 398
METAR KTOB 160215Z AUTO 16011KT 10SM CLR M01/M05 A3004 RMK AO2
Observed Flight Rules
Dec-16 @ 02:15 UTC
(12 minutes ago)
VFR
Wind Visibility
160° at 11 knots 10 miles
Clouds
  • Clear skies
Temperature Dewpoint
-1°C / 30°F -5°C / 23°F
Humidity Altimeter Pressure
75% 30.04" Hg 1017 hPa